Time;durP1;ratioP1;P1;durP2;ratioP2;P2;SDS_P1;SDS_P2;PMS_P1;PMS_P2;Temp;Humidity;BMP_temperature;BMP_pressure;BME280_temperature;BME280_humidity;BME280_pressure;Samples;Min_cycle;Max_cycle;Signal;HPM_P1;HPM_P2
2021/05/28 00:00:19;;;;;;;8.83;6.10;;;;;;;8.91;87.03;97061.59;3487718;40;20860;-73
2021/05/28 00:02:47;;;;;;;9.43;6.67;;;;;;;9.01;86.76;97048.88;3486926;40;20559;-73
2021/05/28 00:05:16;;;;;;;10.47;6.57;;;;;;;9.04;86.24;97057.41;3488339;41;20906;-73
2021/05/28 00:07:44;;;;;;;9.20;6.17;;;;;;;9.07;86.23;97048.53;3487190;40;20469;-73
2021/05/28 00:10:12;;;;;;;13.20;7.27;;;;;;;8.96;85.86;97037.84;3486641;41;20957;-73
2021/05/28 00:12:40;;;;;;;13.77;7.30;;;;;;;8.96;86.28;97054.38;3487511;40;20464;-73
2021/05/28 00:15:10;;;;;;;10.30;7.57;;;;;;;8.93;86.17;97056.31;3486204;41;20729;-72
2021/05/28 00:17:37;;;;;;;9.23;6.80;;;;;;;9.04;86.30;97056.56;3486420;40;20459;-72
2021/05/28 00:20:08;;;;;;;10.93;7.90;;;;;;;9.00;85.94;97060.28;3488315;40;20468;-72
2021/05/28 00:22:35;;;;;;;9.77;6.67;;;;;;;8.88;86.16;97062.63;3486631;40;20767;-72
2021/05/28 00:25:05;;;;;;;8.80;6.37;;;;;;;9.02;85.76;97068.88;3488135;40;20827;-72
2021/05/28 00:27:33;;;;;;;21.23;8.70;;;;;;;8.65;86.30;97070.88;3487065;40;20598;-73
2021/05/28 00:30:01;;;;;;;10.43;6.50;;;;;;;8.89;85.86;97076.53;3487524;40;20726;-72
2021/05/28 00:32:28;;;;;;;11.03;7.20;;;;;;;8.95;85.71;97070.13;3486534;40;20478;-72
2021/05/28 00:34:56;;;;;;;9.37;6.70;;;;;;;8.82;85.63;97069.94;3486885;41;20726;-72
2021/05/28 00:37:23;;;;;;;18.60;7.63;;;;;;;8.97;85.70;97071.72;3486610;40;20457;-73
2021/05/28 00:39:51;;;;;;;9.10;6.53;;;;;;;9.09;85.60;97075.44;3486947;41;20780;-74
2021/05/28 00:42:21;;;;;;;10.03;6.47;;;;;;;9.14;85.61;97072.56;3487015;40;21142;-72
2021/05/28 00:44:49;;;;;;;11.83;7.27;;;;;;;9.17;85.44;97069.78;3487077;41;20477;-74
2021/05/28 00:47:16;;;;;;;11.87;7.27;;;;;;;9.21;85.69;97074.75;3487019;40;20861;-73
2021/05/28 00:49:44;;;;;;;11.73;6.40;;;;;;;9.23;85.29;97075.53;3487788;40;20536;-72
2021/05/28 00:52:12;;;;;;;9.83;5.97;;;;;;;9.25;85.33;97064.97;3486734;40;20484;-72
2021/05/28 00:54:40;;;;;;;11.17;6.17;;;;;;;9.28;85.34;97070.03;3488336;40;20552;-72
2021/05/28 00:57:09;;;;;;;10.17;6.23;;;;;;;9.08;84.70;97037.19;3486733;40;20487;-73
2021/05/28 00:59:38;;;;;;;12.30;6.00;;;;;;;9.28;84.28;97070.03;3488045;40;20473;-71
2021/05/28 01:02:06;;;;;;;9.50;6.10;;;;;;;9.14;84.57;97067.34;3486074;40;20944;-73
2021/05/28 01:04:34;;;;;;;13.40;5.87;;;;;;;9.18;84.43;97074.91;3483076;41;20803;-71
2021/05/28 01:07:01;;;;;;;7.67;5.50;;;;;;;9.21;84.13;97077.38;3487814;40;20559;-73
2021/05/28 01:09:32;;;;;;;7.23;5.00;;;;;;;9.13;84.30;97065.66;3487434;40;20893;-73
2021/05/28 01:12:00;;;;;;;7.80;4.67;;;;;;;8.77;85.38;97059.75;3488173;40;20845;-73
2021/05/28 01:14:28;;;;;;;9.30;5.27;;;;;;;9.03;84.54;97070.53;3488353;41;20799;-73
2021/05/28 01:16:56;;;;;;;5.73;4.23;;;;;;;8.95;85.33;97077.97;3485993;40;20464;-73
2021/05/28 01:19:25;;;;;;;10.07;4.80;;;;;;;9.00;84.76;97070.72;3486761;40;20877;-73
2021/05/28 01:21:53;;;;;;;10.70;4.87;;;;;;;9.06;84.54;97075.59;3484979;40;20478;-72
2021/05/28 01:24:21;;;;;;;8.00;4.37;;;;;;;8.98;84.32;97076.03;3486905;40;20540;-72
2021/05/28 01:26:48;;;;;;;8.07;4.30;;;;;;;8.96;83.63;97077.88;3487044;40;20514;-72
2021/05/28 01:29:16;;;;;;;15.60;4.70;;;;;;;8.90;83.94;97071.22;3486931;40;20461;-73
2021/05/28 01:31:43;;;;;;;7.20;4.60;;;;;;;9.04;84.11;97073.06;3479933;40;20583;-72
2021/05/28 01:34:10;;;;;;;8.13;4.83;;;;;;;9.07;84.19;97078.13;3484868;41;20937;-73
2021/05/28 01:36:38;;;;;;;11.40;5.53;;;;;;;8.87;83.93;97075.75;3486048;40;20476;-72
2021/05/28 01:39:06;;;;;;;5.83;4.53;;;;;;;8.87;84.24;97060.09;3489045;40;20569;-72
2021/05/28 01:41:34;;;;;;;8.33;3.87;;;;;;;8.89;84.73;97068.69;3486647;40;20845;-71
2021/05/28 01:44:07;;;;;;;6.83;4.57;;;;;;;8.94;84.37;97066.69;3487539;40;20741;-72
2021/05/28 01:46:35;;;;;;;7.23;4.80;;;;;;;8.87;84.23;97068.75;3486671;40;20579;-72
2021/05/28 01:49:03;;;;;;;7.30;4.77;;;;;;;8.81;83.61;97069.09;3487387;40;20442;-71
2021/05/28 01:51:31;;;;;;;5.57;4.47;;;;;;;8.88;83.00;97070.47;3486470;40;21186;-71
2021/05/28 01:53:59;;;;;;;8.10;4.83;;;;;;;8.52;84.20;97068.88;3486501;41;20491;-72
2021/05/28 01:56:27;;;;;;;7.87;5.50;;;;;;;8.58;85.66;97065.09;3486762;40;20452;-72
2021/05/28 01:58:55;;;;;;;6.87;4.73;;;;;;;8.59;85.54;97063.38;3486774;40;20612;-71
2021/05/28 02:01:23;;;;;;;11.80;5.00;;;;;;;8.32;86.09;97069.91;3486174;40;20492;-71
2021/05/28 02:03:51;;;;;;;6.97;4.70;;;;;;;8.54;85.48;97066.19;3486627;41;20697;-72
2021/05/28 02:06:19;;;;;;;8.73;4.93;;;;;;;8.62;84.83;97071.00;3486688;40;20826;-73
2021/05/28 02:08:49;;;;;;;6.80;4.80;;;;;;;8.63;83.89;97072.72;3487147;40;21179;-73
2021/05/28 02:11:17;;;;;;;7.87;4.67;;;;;;;8.60;83.68;97058.03;3485883;40;20476;-73
2021/05/28 02:13:44;;;;;;;11.60;4.90;;;;;;;8.67;83.38;97075.06;3486860;40;20829;-73
2021/05/28 02:16:13;;;;;;;10.20;6.20;;;;;;;8.68;83.64;97076.78;3486220;40;20631;-72
2021/05/28 02:18:41;;;;;;;10.13;5.47;;;;;;;8.59;84.70;97079.03;3486392;40;20853;-72
2021/05/28 02:21:08;;;;;;;11.20;6.50;;;;;;;8.63;84.77;97080.56;3486091;40;20516;-72
2021/05/28 02:23:35;;;;;;;11.47;5.70;;;;;;;8.72;84.58;97080.03;3485441;41;20775;-72
2021/05/28 02:26:03;;;;;;;9.73;6.10;;;;;;;8.68;84.85;97076.78;3485564;40;20480;-73
2021/05/28 02:28:30;;;;;;;10.07;6.33;;;;;;;8.62;85.56;97076.22;3487434;40;20986;-73
2021/05/28 02:30:58;;;;;;;10.83;6.37;;;;;;;8.49;86.43;97076.06;3486812;40;20465;-72
2021/05/28 02:33:26;;;;;;;12.40;6.53;;;;;;;8.58;86.24;97083.38;3487147;40;20458;-74
2021/05/28 02:35:54;;;;;;;20.60;7.00;;;;;;;8.62;85.95;97082.28;3486296;40;20494;-71
2021/05/28 02:38:21;;;;;;;14.60;5.73;;;;;;;8.66;85.88;97086.47;3486505;40;20568;-72
2021/05/28 02:40:51;;;;;;;9.07;5.03;;;;;;;8.50;85.66;97075.94;3485695;40;20606;-72
2021/05/28 02:43:20;;;;;;;13.13;6.37;;;;;;;8.50;86.16;97073.34;3485737;40;20463;-71
2021/05/28 02:45:47;;;;;;;8.70;6.13;;;;;;;8.50;86.04;97067.28;3486262;40;20561;-72
2021/05/28 02:48:18;;;;;;;8.93;5.80;;;;;;;8.12;87.37;97068.34;3485954;40;20698;-71
2021/05/28 02:50:47;;;;;;;13.50;6.47;;;;;;;8.02;87.70;97071.50;3485860;40;20573;-72
2021/05/28 02:53:16;;;;;;;15.63;6.40;;;;;;;7.98;87.44;97073.44;3484820;41;20580;-71
2021/05/28 02:55:44;;;;;;;9.10;6.00;;;;;;;8.01;87.31;97075.84;3485349;40;20464;-71
2021/05/28 02:58:12;;;;;;;9.67;5.23;;;;;;;8.02;86.73;97080.16;3486980;40;20462;-71
2021/05/28 03:00:40;;;;;;;8.87;6.10;;;;;;;7.93;86.87;97083.25;3485909;40;20706;-71
2021/05/28 03:03:07;;;;;;;8.50;6.13;;;;;;;7.96;86.57;97084.84;3485676;40;20460;-71
2021/05/28 03:05:35;;;;;;;7.23;5.30;;;;;;;7.87;86.93;97088.75;3486995;40;20534;-71
2021/05/28 03:08:04;;;;;;;9.50;4.93;;;;;;;7.93;87.04;97078.03;3489785;40;20823;-71
2021/05/28 03:10:32;;;;;;;8.53;5.70;;;;;;;7.99;87.24;97066.44;3488685;40;20483;-71
2021/05/28 03:13:00;;;;;;;10.57;6.17;;;;;;;8.07;87.02;97079.94;3487282;41;20476;-71
2021/05/28 03:15:28;;;;;;;10.60;6.60;;;;;;;8.06;87.29;97089.53;3490226;40;20457;-71
2021/05/28 03:17:57;;;;;;;7.37;5.13;;;;;;;7.80;87.54;97087.38;3489382;41;20708;-70
2021/05/28 03:20:27;;;;;;;8.80;5.00;;;;;;;7.62;88.21;97083.91;3489529;41;20496;-71
2021/05/28 03:22:55;;;;;;;6.00;4.53;;;;;;;7.83;87.68;97079.41;3478611;41;20474;-71
2021/05/28 03:25:24;;;;;;;9.87;4.90;;;;;;;7.90;87.27;97079.03;3480204;41;20853;-72
2021/05/28 03:27:53;;;;;;;7.77;6.23;;;;;;;7.97;87.50;97078.72;3486680;41;20520;-72
2021/05/28 03:30:21;;;;;;;9.77;5.03;;;;;;;8.02;87.18;97079.34;3485905;40;20901;-70
2021/05/28 03:32:50;;;;;;;11.40;5.33;;;;;;;7.98;86.93;97080.38;3485631;40;20778;-70
2021/05/28 03:35:18;;;;;;;10.30;6.37;;;;;;;7.97;87.32;97074.34;3487813;40;20461;-71
2021/05/28 03:37:49;;;;;;;10.33;6.10;;;;;;;8.00;86.68;97079.41;3491024;40;20726;-72
2021/05/28 03:40:17;;;;;;;10.60;5.70;;;;;;;7.94;86.62;97079.72;3486555;40;20461;-71
2021/05/28 03:42:45;;;;;;;10.03;5.13;;;;;;;7.87;87.08;97088.75;3485743;40;20994;-72
2021/05/28 03:45:13;;;;;;;15.27;5.50;;;;;;;7.73;87.55;97082.47;3486018;40;20516;-72
2021/05/28 03:47:41;;;;;;;9.10;5.60;;;;;;;7.87;87.35;97088.75;3485561;40;20553;-71
2021/05/28 03:50:09;;;;;;;10.97;6.07;;;;;;;7.96;86.98;97090.91;3484558;41;20506;-72
2021/05/28 03:52:36;;;;;;;9.90;5.33;;;;;;;7.87;86.73;97088.75;3484435;40;20773;-73
2021/05/28 03:55:06;;;;;;;9.80;5.30;;;;;;;7.48;87.51;97040.28;3486751;40;20576;-70
2021/05/28 03:57:33;;;;;;;7.30;5.37;;;;;;;7.82;87.44;97081.19;3485596;40;20480;-72
2021/05/28 04:00:02;;;;;;;7.67;4.50;;;;;;;7.85;87.24;97075.78;3486798;40;20449;-72
2021/05/28 04:02:29;;;;;;;13.17;5.90;;;;;;;7.94;86.80;97074.50;3485662;40;20553;-74
2021/05/28 04:04:57;;;;;;;9.43;5.63;;;;;;;7.96;86.55;97067.44;3486316;40;20445;-71
2021/05/28 04:07:27;;;;;;;11.43;5.83;;;;;;;7.98;86.26;97070.81;3485922;40;20469;-71
2021/05/28 04:09:54;;;;;;;6.93;5.20;;;;;;;8.01;86.03;97070.66;3485532;41;20468;-72
2021/05/28 04:12:22;;;;;;;10.00;5.90;;;;;;;7.93;86.00;97078.03;3483989;40;20909;-73
2021/05/28 04:14:53;;;;;;;8.70;5.07;;;;;;;7.98;85.75;97070.81;3485615;41;21114;-72
2021/05/28 04:17:21;;;;;;;10.23;4.33;;;;;;;8.03;85.74;97073.19;3485008;40;20488;-72
2021/05/28 04:19:51;;;;;;;8.90;5.80;;;;;;;8.04;85.71;97075.72;3486322;40;20484;-72
2021/05/28 04:22:21;;;;;;;9.40;5.43;;;;;;;7.99;85.55;97076.88;3486013;40;20729;-71
2021/05/28 04:24:51;;;;;;;12.23;6.43;;;;;;;7.95;85.65;97073.56;3486681;40;20813;-72
2021/05/28 04:27:18;;;;;;;10.00;5.70;;;;;;;8.02;85.50;97076.72;3485244;40;20947;-71
2021/05/28 04:29:46;;;;;;;11.60;5.53;;;;;;;8.01;85.00;97070.66;3485762;40;20512;-71
2021/05/28 04:32:13;;;;;;;9.33;4.57;;;;;;;7.88;85.38;97074.81;3485045;40;20473;-71
2021/05/28 04:34:42;;;;;;;9.83;5.37;;;;;;;7.67;86.28;97085.38;3484621;41;20793;-70
2021/05/28 04:37:10;;;;;;;8.13;6.07;;;;;;;7.76;86.17;97084.06;3486030;40;20464;-72
2021/05/28 04:39:37;;;;;;;10.37;5.37;;;;;;;7.83;86.14;97077.63;3486994;40;20502;-71
2021/05/28 04:42:05;;;;;;;9.73;5.53;;;;;;;7.96;85.84;97082.22;3487207;40;20461;-72
2021/05/28 04:44:32;;;;;;;7.60;5.83;;;;;;;8.07;85.08;97080.75;3486382;41;20648;-72
2021/05/28 04:47:00;;;;;;;9.03;5.50;;;;;;;8.18;84.44;97085.44;3486814;40;20476;-75
2021/05/28 04:49:27;;;;;;;11.33;5.93;;;;;;;8.34;83.16;97085.50;3485790;41;20477;-71
2021/05/28 04:51:56;;;;;;;10.47;5.97;;;;;;;8.45;82.40;97084.97;3486959;40;20489;-72
2021/05/28 04:54:24;;;;;;;8.73;5.60;;;;;;;8.54;81.90;97084.47;3487457;40;20505;-71
2021/05/28 04:56:56;;;;;;;15.07;6.10;;;;;;;8.55;82.17;97082.72;3486624;40;20491;-72
2021/05/28 04:59:23;;;;;;;9.70;4.90;;;;;;;8.62;81.48;97091.91;3487647;40;20487;-72
2021/05/28 05:01:53;;;;;;;9.03;5.50;;;;;;;8.81;80.68;97099.59;3486420;40;20830;-72
2021/05/28 05:04:21;;;;;;;9.90;5.90;;;;;;;8.61;82.08;97096.28;3488671;40;20445;-73
2021/05/28 05:06:53;;;;;;;13.33;7.23;;;;;;;8.80;81.43;97096.16;3486897;40;20567;-71
2021/05/28 05:09:21;;;;;;;9.73;5.63;;;;;;;8.97;80.78;97094.41;3485689;41;20781;-71
2021/05/28 05:11:53;;;;;;;10.03;5.97;;;;;;;9.08;79.93;97105.94;3486813;40;20498;-73
2021/05/28 05:14:21;;;;;;;13.47;6.60;;;;;;;9.12;79.06;97085.72;3486807;40;20572;-72
2021/05/28 05:16:49;;;;;;;11.37;6.07;;;;;;;9.12;79.48;97101.41;3486958;40;20639;-72
2021/05/28 05:19:17;;;;;;;16.13;6.67;;;;;;;9.23;79.04;97106.00;3486802;40;20906;-72
2021/05/28 05:21:44;;;;;;;11.67;6.57;;;;;;;9.18;78.63;97105.44;3485432;40;20963;-72
2021/05/28 05:24:12;;;;;;;12.80;7.83;;;;;;;9.21;78.38;97100.03;3488039;40;20959;-72
2021/05/28 05:26:40;;;;;;;20.10;7.37;;;;;;;9.29;78.69;97103.94;3485025;40;20504;-72
2021/05/28 05:29:09;;;;;;;14.63;7.37;;;;;;;9.53;78.15;97106.09;3487392;40;20449;-71
2021/05/28 05:31:39;;;;;;;15.50;7.60;;;;;;;9.48;78.13;97108.09;3486683;40;20544;-71
2021/05/28 05:34:07;;;;;;;19.93;7.43;;;;;;;9.66;77.21;97109.69;3486144;40;20794;-74
2021/05/28 05:36:35;;;;;;;15.67;7.00;;;;;;;9.76;77.71;97117.00;3485637;40;20795;-71
2021/05/28 05:39:03;;;;;;;23.10;7.67;;;;;;;9.78;77.23;97112.53;3487481;40;20441;-71
2021/05/28 05:41:31;;;;;;;22.50;8.57;;;;;;;9.93;76.89;97108.19;3486623;40;20469;-70
2021/05/28 05:43:59;;;;;;;16.63;7.83;;;;;;;10.04;76.87;97111.88;3484470;41;20461;-71
2021/05/28 05:46:27;;;;;;;13.50;7.67;;;;;;;10.27;75.69;97118.38;3486014;40;20488;-72
2021/05/28 05:48:54;;;;;;;20.00;7.03;;;;;;;10.27;75.09;97121.00;3485267;41;20468;-70
2021/05/28 05:51:22;;;;;;;34.10;19.30;;;;;;;10.53;74.39;97097.66;3487753;40;20480;-73
2021/05/28 05:53:49;;;;;;;28.33;13.23;;;;;;;10.76;73.88;97119.84;3487689;40;20831;-71
2021/05/28 05:56:17;;;;;;;14.03;8.20;;;;;;;10.67;74.53;97121.22;3487829;40;20709;-70
2021/05/28 05:58:44;;;;;;;14.40;7.23;;;;;;;10.51;74.57;97120.50;3487411;40;20838;-72
2021/05/28 06:01:13;;;;;;;14.57;6.10;;;;;;;10.54;74.16;97119.44;3486802;40;20758;-71
2021/05/28 06:03:40;;;;;;;16.80;7.60;;;;;;;10.60;75.32;97130.38;3486641;41;20483;-70
2021/05/28 06:06:07;;;;;;;12.87;7.50;;;;;;;10.75;74.57;97136.50;3486059;40;20777;-71
2021/05/28 06:08:35;;;;;;;15.70;7.80;;;;;;;10.48;74.46;97147.69;3486179;40;20691;-71
2021/05/28 06:11:02;;;;;;;16.00;7.53;;;;;;;10.48;75.50;97145.06;3487043;40;20484;-70
2021/05/28 06:13:30;;;;;;;13.83;6.37;;;;;;;10.57;75.51;97148.94;3487603;41;20479;-71
2021/05/28 06:15:57;;;;;;;14.97;7.37;;;;;;;10.73;75.11;97140.97;3486806;40;20477;-72
2021/05/28 06:18:26;;;;;;;15.70;8.17;;;;;;;11.23;73.88;97146.63;3488356;40;20513;-71
2021/05/28 06:20:53;;;;;;;9.37;5.93;;;;;;;11.18;72.95;97138.25;3486450;40;20916;-71
2021/05/28 06:23:20;;;;;;;15.23;8.00;;;;;;;11.22;71.71;97135.31;3485791;41;20467;-71
2021/05/28 06:25:55;;;;;;;35.60;20.73;;;;;;;11.25;72.20;97140.38;3487140;40;20988;-73
2021/05/28 06:28:23;;;;;;;28.73;11.90;;;;;;;11.28;72.41;97131.47;3487747;40;20578;-71
2021/05/28 06:30:50;;;;;;;17.40;8.30;;;;;;;11.08;72.64;97133.56;3486253;40;20509;-71
2021/05/28 06:33:18;;;;;;;16.23;8.00;;;;;;;11.49;71.74;97142.38;3487164;41;20739;-70
2021/05/28 06:35:46;;;;;;;19.10;7.23;;;;;;;11.51;72.35;97139.69;3487634;40;20465;-72
2021/05/28 06:38:14;;;;;;;13.00;6.73;;;;;;;11.95;70.74;97147.31;3487498;40;20484;-73
2021/05/28 06:40:41;;;;;;;21.40;7.07;;;;;;;12.08;70.39;97149.97;3486126;40;20778;-72
2021/05/28 06:43:09;;;;;;;16.53;7.13;;;;;;;12.11;68.16;97149.75;3484886;41;20808;-71
2021/05/28 06:45:38;;;;;;;23.20;7.50;;;;;;;11.61;69.88;97149.47;3485550;40;20487;-71
2021/05/28 06:48:08;;;;;;;13.80;6.27;;;;;;;11.33;71.14;97147.78;3489425;40;21146;-72
2021/05/28 06:50:39;;;;;;;17.00;5.80;;;;;;;11.47;70.52;97129.38;3486686;40;20487;-72
2021/05/28 06:53:08;;;;;;;14.40;6.87;;;;;;;12.06;69.92;97142.19;3486103;40;21000;-73
2021/05/28 06:55:36;;;;;;;18.40;7.03;;;;;;;12.73;67.96;97154.34;3486885;40;20991;-72
2021/05/28 06:58:04;;;;;;;9.67;6.17;;;;;;;12.44;68.35;97154.53;3487330;40;20468;-72
2021/05/28 07:00:32;;;;;;;14.63;7.43;;;;;;;12.49;67.90;97156.03;3485230;40;20896;-72
2021/05/28 07:02:59;;;;;;;15.67;7.20;;;;;;;12.50;68.09;97155.06;3486735;40;20767;-71
2021/05/28 07:05:28;;;;;;;14.90;7.80;;;;;;;12.31;67.76;97156.31;3486490;40;20853;-72
2021/05/28 07:07:56;;;;;;;21.63;7.60;;;;;;;12.21;68.62;97160.50;3486976;41;20878;-72
2021/05/28 07:10:24;;;;;;;19.73;7.43;;;;;;;12.54;67.44;97156.56;3487622;40;21182;-72
2021/05/28 07:12:52;;;;;;;15.13;7.40;;;;;;;12.60;65.68;97158.75;3485938;41;20751;-73
2021/05/28 07:15:20;;;;;;;20.60;10.70;;;;;;;12.36;67.68;97167.34;3485124;41;20729;-72
2021/05/28 07:17:48;;;;;;;22.43;7.90;;;;;;;12.56;64.93;97149.41;3486980;40;20771;-73
2021/05/28 07:20:17;;;;;;;19.63;7.87;;;;;;;12.80;65.22;97171.38;3486059;40;20490;-73
2021/05/28 07:22:44;;;;;;;12.03;6.43;;;;;;;12.08;67.89;97173.59;3484717;40;21025;-72
2021/05/28 07:25:14;;;;;;;24.77;15.63;;;;;;;12.20;66.06;97172.78;3485605;40;20470;-73
2021/05/28 07:27:43;;;;;;;12.00;6.73;;;;;;;12.46;65.60;97180.72;3485382;40;20507;-72
2021/05/28 07:30:12;;;;;;;18.27;6.03;;;;;;;12.03;66.37;97175.69;3486787;41;20473;-72
2021/05/28 07:32:40;;;;;;;9.57;5.50;;;;;;;12.15;65.91;97184.53;3486970;40;21003;-72
2021/05/28 07:35:09;;;;;;;15.57;6.70;;;;;;;12.34;64.16;97177.13;3488156;40;20870;-71
2021/05/28 07:37:37;;;;;;;14.33;5.87;;;;;;;12.20;64.51;97178.03;3486018;40;20767;-71
2021/05/28 07:40:07;;;;;;;11.80;6.23;;;;;;;12.43;63.40;97178.31;3486651;40;20865;-73
2021/05/28 07:42:35;;;;;;;8.27;5.50;;;;;;;12.43;63.83;97173.88;3485603;40;20467;-73
2021/05/28 07:45:05;;;;;;;11.70;5.20;;;;;;;11.91;65.04;97171.22;3486014;40;20928;-73
2021/05/28 07:47:32;;;;;;;9.87;5.77;;;;;;;11.99;64.62;97175.03;3485917;40;20880;-73
2021/05/28 07:50:01;;;;;;;10.57;5.73;;;;;;;12.77;63.39;97171.59;3488804;40;21099;-72
2021/05/28 07:52:29;;;;;;;22.97;5.30;;;;;;;13.01;63.83;97160.31;3487067;40;20710;-72
2021/05/28 07:54:56;;;;;;;14.37;4.70;;;;;;;13.33;62.95;97163.38;3487189;40;20434;-73
2021/05/28 07:57:24;;;;;;;11.73;4.90;;;;;;;13.74;60.90;97167.44;3486464;40;20905;-73
2021/05/28 07:59:52;;;;;;;8.23;4.73;;;;;;;13.30;62.75;97175.88;3487299;41;20445;-72
2021/05/28 08:02:20;;;;;;;8.43;4.97;;;;;;;13.59;62.96;97164.13;3486692;40;20833;-72
2021/05/28 08:04:47;;;;;;;13.23;5.57;;;;;;;14.02;61.66;97168.88;3486927;40;20513;-74
2021/05/28 08:07:15;;;;;;;13.13;5.00;;;;;;;13.08;62.77;97176.53;3485916;40;20480;-73
2021/05/28 08:09:42;;;;;;;10.13;5.37;;;;;;;12.90;61.60;97178.63;3488471;40;21150;-73
2021/05/28 08:12:10;;;;;;;33.47;7.20;;;;;;;12.34;63.59;97179.75;3484631;40;20768;-73
2021/05/28 08:14:37;;;;;;;11.20;5.50;;;;;;;13.06;62.72;97163.47;3487921;40;20674;-71
2021/05/28 08:17:05;;;;;;;10.10;5.20;;;;;;;13.91;61.24;97155.66;3486621;40;20604;-72
2021/05/28 08:19:33;;;;;;;30.97;6.30;;;;;;;14.41;59.89;97166.88;3486480;41;21084;-73
2021/05/28 08:22:01;;;;;;;25.93;6.60;;;;;;;14.44;59.48;97169.28;3486878;40;20866;-72
2021/05/28 08:24:29;;;;;;;10.23;4.10;;;;;;;14.55;58.09;97170.28;3481620;41;20944;-72
2021/05/28 08:26:56;;;;;;;10.07;4.30;;;;;;;14.73;57.29;97168.06;3486613;40;20506;-73
2021/05/28 08:29:23;;;;;;;12.53;4.00;;;;;;;14.98;57.41;97170.47;3486680;40;20456;-71
2021/05/28 08:31:55;;;;;;;67.00;37.67;;;;;;;14.93;57.26;97167.34;3485701;40;21156;-72
2021/05/28 08:34:23;;;;;;;28.87;14.07;;;;;;;14.86;58.31;97181.13;3486232;41;20583;-72
2021/05/28 08:36:51;;;;;;;8.83;3.93;;;;;;;15.18;57.39;97171.56;3486071;40;20754;-72
2021/05/28 08:39:20;;;;;;;18.07;4.27;;;;;;;15.14;55.96;97169.28;3487210;41;20532;-71
2021/05/28 08:41:50;;;;;;;20.17;4.73;;;;;;;15.19;55.43;97165.34;3485566;40;20480;-72
2021/05/28 08:44:25;;;;;;;8.43;3.80;;;;;;;15.18;55.70;97163.66;3488103;40;20557;-71
2021/05/28 08:46:53;;;;;;;11.60;3.93;;;;;;;14.90;56.39;97159.69;3487004;40;20786;-72
2021/05/28 08:49:22;;;;;;;11.97;4.87;;;;;;;14.18;58.95;97165.97;3486940;40;21207;-71
2021/05/28 08:51:49;;;;;;;9.67;4.23;;;;;;;13.72;60.24;97174.63;3487275;40;20461;-73
2021/05/28 08:54:18;;;;;;;11.20;4.30;;;;;;;14.21;60.28;97167.50;3485350;41;20560;-72
2021/05/28 08:56:48;;;;;;;8.57;5.30;;;;;;;14.88;57.72;97161.63;3487957;40;20861;-72
2021/05/28 08:59:16;;;;;;;10.53;4.17;;;;;;;14.13;57.96;97162.84;3486415;41;20871;-71
2021/05/28 09:01:46;;;;;;;8.00;4.40;;;;;;;13.68;60.23;97160.00;3487214;40;20480;-73
2021/05/28 09:04:13;;;;;;;9.90;4.00;;;;;;;13.58;60.12;97161.59;3488817;40;20528;-72
2021/05/28 09:06:42;;;;;;;6.70;3.87;;;;;;;13.90;59.81;97158.41;3486925;40;20892;-74
2021/05/28 09:09:12;;;;;;;9.37;3.87;;;;;;;14.76;56.96;97159.91;3488002;41;20476;-74
2021/05/28 09:11:55;;;;;;;8.77;4.43;;;;;;;14.97;56.39;97157.41;3487345;40;21051;-73
2021/05/28 09:14:30;;;;;;;12.37;3.70;;;;;;;15.95;53.66;97170.72;3486534;41;20940;-75
2021/05/28 09:16:58;;;;;;;6.53;3.90;;;;;;;16.33;51.20;97165.94;3481610;40;20936;-72
2021/05/28 09:19:25;;;;;;;9.17;3.10;;;;;;;16.35;51.88;97166.63;3487075;40;20861;-73
2021/05/28 09:21:58;;;;;;;12.90;3.33;;;;;;;16.55;50.89;97170.25;3486924;40;20722;-73
2021/05/28 09:24:32;;;;;;;11.97;3.87;;;;;;;15.96;51.69;97169.78;3487615;40;20449;-73
2021/05/28 09:27:19;;;;;;;6.80;3.20;;;;;;;15.62;51.55;97175.13;3485123;40;20964;-74
2021/05/28 09:30:06;;;;;;;225.60;134.97;;;;;;;15.25;55.07;97164.03;3486666;41;20477;-74
2021/05/28 09:32:35;;;;;;;18.37;10.70;;;;;;;15.49;54.87;97174.41;3484007;40;20466;-73
2021/05/28 09:35:05;;;;;;;7.63;4.47;;;;;;;15.48;54.61;97171.91;3486996;41;20465;-74
2021/05/28 09:37:41;;;;;;;43.27;7.10;;;;;;;15.27;55.46;97166.50;3487165;40;20874;-74
2021/05/28 09:40:17;;;;;;;8.20;3.80;;;;;;;15.34;56.20;97165.09;3490499;41;20460;-72
2021/05/28 09:42:58;;;;;;;14.37;4.83;;;;;;;15.38;56.54;97169.97;3490087;40;20457;-72
2021/05/28 09:45:30;;;;;;;10.80;5.20;;;;;;;15.80;56.04;97162.28;3488429;41;20450;-73
2021/05/28 09:47:59;;;;;;;7.07;4.67;;;;;;;15.85;54.00;97161.06;3486825;41;20929;-72
2021/05/28 09:50:32;;;;;;;7.10;4.27;;;;;;;16.14;55.04;97167.44;3487312;40;20457;-72
2021/05/28 09:53:01;;;;;;;9.37;5.23;;;;;;;16.06;54.33;97159.31;3487313;41;20548;-73
2021/05/28 09:55:31;;;;;;;16.63;5.17;;;;;;;16.06;53.76;97161.94;3487442;40;20751;-72
2021/05/28 09:57:59;;;;;;;36.67;6.53;;;;;;;16.11;53.97;97164.19;3489087;41;20855;-73
2021/05/28 10:00:31;;;;;;;11.63;4.17;;;;;;;13.62;57.71;97161.28;3485574;41;20831;-72
2021/05/28 10:03:11;;;;;;;36.87;4.83;;;;;;;15.10;56.09;97160.78;3481847;40;21006;-73
2021/05/28 10:05:40;;;;;;;16.17;4.47;;;;;;;15.51;54.47;97161.94;3487351;40;20448;-72
2021/05/28 10:08:09;;;;;;;16.43;3.87;;;;;;;15.29;55.43;97164.59;3487692;40;20813;-73
2021/05/28 10:10:37;;;;;;;4.67;3.57;;;;;;;15.89;52.98;97162.47;3486700;40;20600;-74
2021/05/28 10:13:10;;;;;;;6.07;3.20;;;;;;;16.41;52.22;97161.66;3487647;40;20759;-75
2021/05/28 10:15:40;;;;;;;8.23;3.40;;;;;;;16.29;52.59;97162.69;3486130;40;20477;-75
2021/05/28 10:18:08;;;;;;;4.63;2.87;;;;;;;16.64;50.94;97161.56;3487740;41;20496;-75
2021/05/28 10:20:37;;;;;;;7.53;3.27;;;;;;;16.43;49.75;97124.53;3487767;40;20517;-75
2021/05/28 10:23:06;;;;;;;11.33;2.67;;;;;;;16.58;49.36;97156.75;3487419;41;20572;-75
2021/05/28 10:25:34;;;;;;;4.90;3.00;;;;;;;16.48;48.87;97158.50;3485111;40;20500;-74
2021/05/28 10:28:04;;;;;;;6.57;2.23;;;;;;;16.37;48.17;97154.97;3485073;41;20500;-73
2021/05/28 10:30:37;;;;;;;6.93;2.40;;;;;;;16.29;49.44;97153.91;3487525;40;21108;-74
2021/05/28 10:33:23;;;;;;;5.53;2.77;;;;;;;16.13;49.80;97155.19;3486773;41;20485;-72
2021/05/28 10:35:54;;;;;;;8.13;2.60;;;;;;;15.58;51.60;97146.44;3487069;40;20461;-74
2021/05/28 10:38:52;;;;;;;2.97;2.10;;;;;;;16.47;48.04;97148.91;3487035;41;20552;-73
2021/05/28 10:41:38;;;;;;;5.93;2.00;;;;;;;15.65;47.78;97146.81;3484296;40;20473;-73
2021/05/28 10:44:07;;;;;;;7.83;1.60;;;;;;;17.05;45.43;97129.88;3486547;41;20509;-72
2021/05/28 10:46:36;;;;;;;6.67;2.60;;;;;;;16.39;45.27;97147.75;3486770;40;20473;-74
2021/05/28 10:49:07;;;;;;;7.20;5.20;;;;;;;16.74;43.45;97138.63;3485993;40;20498;-73
2021/05/28 10:52:12;;;;;;;4.23;2.07;;;;;;;17.33;44.06;97131.00;3488649;40;20457;-73
2021/05/28 10:54:43;;;;;;;10.47;2.30;;;;;;;16.27;45.62;97124.13;3488009;40;20480;-74
2021/05/28 10:57:18;;;;;;;7.20;2.50;;;;;;;18.14;44.79;97133.50;3484816;40;20508;-74
2021/05/28 10:59:47;;;;;;;6.50;3.37;;;;;;;18.80;43.87;97139.84;3486654;40;20461;-74
2021/05/28 11:02:17;;;;;;;4.80;2.80;;;;;;;18.52;45.59;97139.72;3486838;40;20869;-75
2021/05/28 11:04:59;;;;;;;4.17;2.80;;;;;;;19.40;44.88;97145.63;3487616;40;20580;-74
2021/05/28 11:07:34;;;;;;;3.63;2.43;;;;;;;20.10;42.87;97131.78;3489513;40;20469;-74
2021/05/28 11:10:23;;;;;;;26.63;3.40;;;;;;;19.47;41.73;97103.38;3486752;41;20535;-74
2021/05/28 11:12:51;;;;;;;3.53;1.67;;;;;;;20.44;40.56;97136.38;3485709;40;20485;-74
2021/05/28 11:15:25;;;;;;;8.80;2.97;;;;;;;20.03;39.28;97136.03;3486951;40;20928;-73
2021/05/28 11:18:00;;;;;;;4.43;2.53;;;;;;;19.54;40.17;97144.28;3476333;41;20740;-73
2021/05/28 11:20:32;;;;;;;5.90;3.07;;;;;;;18.39;41.92;97142.69;3476255;40;20477;-74
2021/05/28 11:23:07;;;;;;;5.77;2.57;;;;;;;19.25;40.51;97133.81;3484997;41;20707;-73
2021/05/28 11:25:45;;;;;;;4.53;2.60;;;;;;;19.40;38.80;97134.16;3486232;40;20452;-74
2021/05/28 11:28:12;;;;;;;6.50;2.73;;;;;;;18.54;41.29;97127.16;3486234;40;20511;-74
2021/05/28 11:30:45;;;;;;;7.07;2.30;;;;;;;18.89;41.52;97126.53;3485785;40;20553;-73
2021/05/28 11:33:39;;;;;;;4.57;2.97;;;;;;;19.17;41.32;97122.13;3485285;41;20924;-73
2021/05/28 11:36:35;;;;;;;5.00;2.53;;;;;;;19.18;40.39;97122.94;3484572;40;20717;-72
2021/05/28 11:39:06;;;;;;;5.13;2.30;;;;;;;19.25;39.60;97115.22;3484750;41;20524;-73
2021/05/28 11:41:42;;;;;;;5.23;2.70;;;;;;;20.75;37.21;97118.19;3485588;40;20481;-73